Time;durP1;ratioP1;P1;durP2;ratioP2;P2;SDS_P1;SDS_P2;PMS_P1;PMS_P2;Temp;Humidity;BMP_temperature;BMP_pressure;BME280_temperature;BME280_humidity;BME280_pressure;Samples;Min_cycle;Max_cycle;Signal;HPM_P1;HPM_P2
2022/02/28 00:00:18;;;;;;;16.63;12.57;;;;;;;;;;2076329;28;20665;-57
2022/02/28 00:01:22;;;;;;;15.10;11.70;;;;;;;;;;2078343;28;20854;-56
2022/02/28 00:02:23;;;;;;;13.17;11.60;;;;;;;;;;2081413;28;20241;-60
2022/02/28 00:03:23;;;;;;;17.40;12.80;;;;;;;;;;2079103;28;20220;-59
2022/02/28 00:04:25;;;;;;;15.33;11.80;;;;;;;;;;2079559;28;20640;-57
2022/02/28 00:05:25;;;;;;;16.03;12.90;;;;;;;;;;2080780;28;20258;-60
2022/02/28 00:06:26;;;;;;;16.93;11.70;;;;;;;;;;2080684;28;20183;-57
2022/02/28 00:07:26;;;;;;;15.90;12.83;;;;;;;;;;2081376;28;20177;-59
2022/02/28 00:08:26;;;;;;;14.60;12.43;;;;;;;;;;2081386;28;20227;-58
2022/02/28 00:09:27;;;;;;;16.43;12.40;;;;;;;;;;2080550;28;20179;-57
2022/02/28 00:10:27;;;;;;;13.83;11.43;;;;;;;;;;2076231;28;20219;-57
2022/02/28 00:11:27;;;;;;;14.10;12.00;;;;;;;;;;2070146;28;20301;-59
2022/02/28 00:12:28;;;;;;;16.33;13.03;;;;;;;;;;2071804;28;20193;-59
2022/02/28 00:13:28;;;;;;;15.87;11.53;;;;;;;;;;2074124;28;20173;-60
2022/02/28 00:14:29;;;;;;;15.83;12.43;;;;;;;;;;2071131;28;20181;-60
2022/02/28 00:15:29;;;;;;;17.20;12.70;;;;;;;;;;2071222;28;20173;-60
2022/02/28 00:16:29;;;;;;;15.30;12.70;;;;;;;;;;2080609;28;20204;-61
2022/02/28 00:17:30;;;;;;;13.93;12.37;;;;;;;;;;2071719;28;20184;-60
2022/02/28 00:18:30;;;;;;;16.67;12.67;;;;;;;;;;2072714;28;20173;-59
2022/02/28 00:19:31;;;;;;;17.13;12.53;;;;;;;;;;2082285;28;20668;-54
2022/02/28 00:20:31;;;;;;;18.10;13.53;;;;;;;;;;2077739;28;20224;-59
2022/02/28 00:21:31;;;;;;;15.93;12.90;;;;;;;;;;2079547;28;20189;-60
2022/02/28 00:22:32;;;;;;;17.57;13.13;;;;;;;;;;2073975;28;20185;-60
2022/02/28 00:23:33;;;;;;;18.27;13.73;;;;;;;;;;2073956;28;20192;-60
2022/02/28 00:24:33;;;;;;;17.53;13.97;;;;;;;;;;2082004;28;20230;-59
2022/02/28 00:25:33;;;;;;;16.50;12.27;;;;;;;;;;2077046;28;20185;-56
2022/02/28 00:26:34;;;;;;;16.63;12.77;;;;;;;;;;2075084;28;20203;-56
2022/02/28 00:27:34;;;;;;;17.47;12.40;;;;;;;;;;2082348;28;20175;-58
2022/02/28 00:28:35;;;;;;;17.47;13.13;;;;;;;;;;2083175;28;20214;-57
2022/02/28 00:29:35;;;;;;;15.53;12.83;;;;;;;;;;2071607;28;20173;-56
2022/02/28 00:30:37;;;;;;;17.97;13.20;;;;;;;;;;2070588;28;20173;-57
2022/02/28 00:31:38;;;;;;;17.30;13.53;;;;;;;;;;2078606;28;20176;-56
2022/02/28 00:32:38;;;;;;;14.77;13.27;;;;;;;;;;2081715;28;20663;-55
2022/02/28 00:33:38;;;;;;;14.60;13.07;;;;;;;;;;2066135;28;20185;-60
2022/02/28 00:34:39;;;;;;;18.07;13.37;;;;;;;;;;2072126;28;20549;-58
2022/02/28 00:35:39;;;;;;;16.00;12.63;;;;;;;;;;2082827;28;20172;-57
2022/02/28 00:36:39;;;;;;;16.83;12.77;;;;;;;;;;2068909;28;20666;-56
2022/02/28 00:37:40;;;;;;;17.63;13.50;;;;;;;;;;2073732;28;20161;-58
2022/02/28 00:38:40;;;;;;;18.70;13.47;;;;;;;;;;2079053;28;20803;-56
2022/02/28 00:39:41;;;;;;;19.63;13.90;;;;;;;;;;2082951;28;20191;-60
2022/02/28 00:40:41;;;;;;;19.30;13.27;;;;;;;;;;2070343;28;20249;-59
2022/02/28 00:41:42;;;;;;;20.83;13.93;;;;;;;;;;2061780;28;20230;-55
2022/02/28 00:42:43;;;;;;;19.10;14.00;;;;;;;;;;2073130;28;20224;-56
2022/02/28 00:43:43;;;;;;;15.43;13.83;;;;;;;;;;2073897;28;20223;-59
2022/02/28 00:44:43;;;;;;;19.93;14.63;;;;;;;;;;2069349;28;20217;-60
2022/02/28 00:45:43;;;;;;;17.60;13.50;;;;;;;;;;2073714;28;20177;-57
2022/02/28 00:46:44;;;;;;;17.47;12.83;;;;;;;;;;2061506;28;20176;-56
2022/02/28 00:47:44;;;;;;;20.63;14.77;;;;;;;;;;2074018;28;20173;-60
2022/02/28 00:48:44;;;;;;;18.43;13.27;;;;;;;;;;2079470;28;20267;-56
2022/02/28 00:49:44;;;;;;;22.80;13.73;;;;;;;;;;2077320;28;20207;-59
2022/02/28 00:50:45;;;;;;;17.90;14.57;;;;;;;;;;2082679;28;20180;-56
2022/02/28 00:51:45;;;;;;;17.70;14.30;;;;;;;;;;2072487;28;20240;-59
2022/02/28 00:52:45;;;;;;;19.13;14.03;;;;;;;;;;2075826;23;20313;-55
2022/02/28 00:53:46;;;;;;;17.17;13.97;;;;;;;;;;2051869;28;20210;-55
2022/02/28 00:54:46;;;;;;;20.73;14.53;;;;;;;;;;2053217;28;20194;-56
2022/02/28 00:55:46;;;;;;;18.40;14.00;;;;;;;;;;2054190;28;20210;-55
2022/02/28 00:56:46;;;;;;;17.57;13.43;;;;;;;;;;2052160;29;20257;-56
2022/02/28 00:57:47;;;;;;;20.70;13.83;;;;;;;;;;2048893;28;20178;-55
2022/02/28 00:58:47;;;;;;;21.33;14.10;;;;;;;;;;2059161;28;20505;-56
2022/02/28 00:59:49;;;;;;;17.37;13.70;;;;;;;;;;2055680;28;20587;-59
2022/02/28 01:00:49;;;;;;;19.03;13.67;;;;;;;;;;2058594;28;20423;-54
2022/02/28 01:01:53;;;;;;;18.97;14.13;;;;;;;;;;2057368;28;20242;-52
2022/02/28 01:02:53;;;;;;;19.53;13.73;;;;;;;;;;2060447;28;20198;-52
2022/02/28 01:03:54;;;;;;;19.57;13.33;;;;;;;;;;2057195;28;20182;-53
2022/02/28 01:04:54;;;;;;;17.07;14.03;;;;;;;;;;2062805;28;20170;-54
2022/02/28 01:05:54;;;;;;;19.43;14.57;;;;;;;;;;2054892;28;20197;-57
2022/02/28 01:06:55;;;;;;;18.73;13.90;;;;;;;;;;2059510;28;20178;-56
2022/02/28 01:07:56;;;;;;;18.83;13.60;;;;;;;;;;2047982;28;20939;-54
2022/02/28 01:08:56;;;;;;;16.27;13.67;;;;;;;;;;2045796;28;20174;-57
2022/02/28 01:09:57;;;;;;;16.43;14.50;;;;;;;;;;2054052;28;20572;-55
2022/02/28 01:10:57;;;;;;;16.93;13.43;;;;;;;;;;2057730;28;20178;-52
2022/02/28 01:11:57;;;;;;;18.63;14.63;;;;;;;;;;2059360;28;20180;-55
2022/02/28 01:12:57;;;;;;;17.63;14.83;;;;;;;;;;2056547;28;20190;-52
2022/02/28 01:13:58;;;;;;;16.73;14.20;;;;;;;;;;2045987;29;20210;-55
2022/02/28 01:14:59;;;;;;;19.03;14.13;;;;;;;;;;2042343;29;20259;-56
2022/02/28 01:15:59;;;;;;;18.13;14.87;;;;;;;;;;2046272;29;20584;-53
2022/02/28 01:16:59;;;;;;;17.00;14.03;;;;;;;;;;2044974;29;20184;-54
2022/02/28 01:17:59;;;;;;;19.23;14.83;;;;;;;;;;2054679;28;20227;-55
2022/02/28 01:19:00;;;;;;;19.03;14.03;;;;;;;;;;2050107;28;20566;-54
2022/02/28 01:20:00;;;;;;;20.90;13.87;;;;;;;;;;2049694;29;20191;-55
2022/02/28 01:21:02;;;;;;;17.40;13.70;;;;;;;;;;2051332;28;20616;-55
2022/02/28 01:22:02;;;;;;;18.47;14.10;;;;;;;;;;2059014;28;20448;-56
2022/02/28 01:23:03;;;;;;;19.47;14.13;;;;;;;;;;2052837;28;20827;-54
2022/02/28 01:24:03;;;;;;;22.33;14.87;;;;;;;;;;2047625;29;20231;-56
2022/02/28 01:25:04;;;;;;;18.43;14.17;;;;;;;;;;2055830;28;20727;-56
2022/02/28 01:26:04;;;;;;;20.93;14.50;;;;;;;;;;2051994;28;20203;-55
2022/02/28 01:27:05;;;;;;;19.60;14.73;;;;;;;;;;2043044;29;20188;-54
2022/02/28 01:28:05;;;;;;;19.50;14.03;;;;;;;;;;2035266;28;20191;-55
2022/02/28 01:29:05;;;;;;;19.03;14.40;;;;;;;;;;2035448;29;20924;-54
2022/02/28 01:30:06;;;;;;;19.57;15.13;;;;;;;;;;2049205;28;20227;-55
2022/02/28 01:31:06;;;;;;;19.63;14.40;;;;;;;;;;2047760;29;20176;-54
2022/02/28 01:32:07;;;;;;;21.10;14.77;;;;;;;;;;2051695;28;20371;-55
2022/02/28 01:33:07;;;;;;;23.13;15.30;;;;;;;;;;2038806;29;20188;-55
2022/02/28 01:34:07;;;;;;;21.63;15.70;;;;;;;;;;2047445;28;20179;-55
2022/02/28 01:35:09;;;;;;;19.30;15.50;;;;;;;;;;2059520;28;20170;-52
2022/02/28 01:36:10;;;;;;;17.90;14.50;;;;;;;;;;2051779;28;20175;-57
2022/02/28 01:37:10;;;;;;;18.03;15.97;;;;;;;;;;2052072;28;20775;-56
2022/02/28 01:38:10;;;;;;;25.57;16.27;;;;;;;;;;2050490;29;20179;-55
2022/02/28 01:39:10;;;;;;;20.93;14.67;;;;;;;;;;2038693;29;20212;-55
2022/02/28 01:40:12;;;;;;;22.40;15.33;;;;;;;;;;2046783;29;20190;-57
2022/02/28 01:41:12;;;;;;;22.70;15.67;;;;;;;;;;2051609;28;20191;-57
2022/02/28 01:42:13;;;;;;;20.20;15.07;;;;;;;;;;2046336;29;20461;-53
2022/02/28 01:43:14;;;;;;;23.67;16.83;;;;;;;;;;2048773;28;20175;-55
2022/02/28 01:44:15;;;;;;;21.73;15.63;;;;;;;;;;2059479;28;20512;-56
2022/02/28 01:45:21;;;;;;;21.03;16.07;;;;;;;;;;2057640;28;20178;-56
2022/02/28 01:46:22;;;;;;;21.70;15.70;;;;;;;;;;2059131;28;20234;-56
2022/02/28 01:47:22;;;;;;;21.67;16.43;;;;;;;;;;2052187;28;20435;-55
2022/02/28 01:48:22;;;;;;;21.27;16.87;;;;;;;;;;2057502;28;20273;-53
2022/02/28 01:49:23;;;;;;;25.20;16.17;;;;;;;;;;2050530;29;20175;-55
2022/02/28 01:50:24;;;;;;;20.20;16.03;;;;;;;;;;2042247;28;20250;-55
2022/02/28 01:51:24;;;;;;;23.00;17.33;;;;;;;;;;2048831;29;20285;-54
2022/02/28 01:52:25;;;;;;;22.43;15.80;;;;;;;;;;2048455;29;20413;-53
2022/02/28 01:53:25;;;;;;;19.27;15.37;;;;;;;;;;2050456;28;20671;-57
2022/02/28 01:54:25;;;;;;;19.87;15.60;;;;;;;;;;2043026;28;20191;-54
2022/02/28 01:55:26;;;;;;;22.73;16.77;;;;;;;;;;2049149;29;20234;-55
2022/02/28 01:56:26;;;;;;;23.60;16.27;;;;;;;;;;2056674;28;20202;-53
2022/02/28 01:57:27;;;;;;;22.80;16.37;;;;;;;;;;2060098;28;20256;-56
2022/02/28 01:58:34;;;;;;;25.97;17.23;;;;;;;;;;2043535;29;20210;-55
2022/02/28 01:59:34;;;;;;;20.97;16.53;;;;;;;;;;2042150;29;20175;-54
2022/02/28 02:00:35;;;;;;;21.53;17.00;;;;;;;;;;2050337;29;20441;-55
2022/02/28 02:01:35;;;;;;;22.47;16.60;;;;;;;;;;2059022;28;20178;-64
2022/02/28 02:02:35;;;;;;;23.73;16.67;;;;;;;;;;2058710;28;20194;-55
2022/02/28 02:03:36;;;;;;;21.73;16.43;;;;;;;;;;2059394;28;20186;-55
2022/02/28 02:04:36;;;;;;;21.63;16.40;;;;;;;;;;2060408;28;20194;-54
2022/02/28 02:05:37;;;;;;;21.33;16.73;;;;;;;;;;2053163;28;20186;-55
2022/02/28 02:06:38;;;;;;;24.27;16.40;;;;;;;;;;2051173;28;20163;-55
2022/02/28 02:07:38;;;;;;;21.90;16.23;;;;;;;;;;2050694;29;20405;-53
2022/02/28 02:08:40;;;;;;;20.53;17.20;;;;;;;;;;2051924;29;20676;-55
2022/02/28 02:09:40;;;;;;;21.50;16.30;;;;;;;;;;2061061;28;20194;-57
2022/02/28 02:10:41;;;;;;;21.90;16.87;;;;;;;;;;2052552;28;20425;-53
2022/02/28 02:11:41;;;;;;;22.33;15.87;;;;;;;;;;2044809;29;20227;-54
2022/02/28 02:12:44;;;;;;;20.30;16.87;;;;;;;;;;2044881;29;20656;-56
2022/02/28 02:13:47;;;;;;;22.20;15.93;;;;;;;;;;2044389;29;20191;-54
2022/02/28 02:14:47;;;;;;;22.93;16.20;;;;;;;;;;2049995;28;20203;-52
2022/02/28 02:15:48;;;;;;;24.33;16.70;;;;;;;;;;2051484;29;20416;-52
2022/02/28 02:16:48;;;;;;;25.13;17.23;;;;;;;;;;2059305;28;20698;-55
2022/02/28 02:17:49;;;;;;;24.80;17.00;;;;;;;;;;2050967;28;20211;-54
2022/02/28 02:18:49;;;;;;;21.73;16.50;;;;;;;;;;2049397;28;20178;-56
2022/02/28 02:19:52;;;;;;;21.97;17.03;;;;;;;;;;2051228;28;20280;-56
2022/02/28 02:20:53;;;;;;;21.47;16.30;;;;;;;;;;2055868;28;20213;-54
2022/02/28 02:21:53;;;;;;;21.10;16.43;;;;;;;;;;2051475;28;20430;-54
2022/02/28 02:22:56;;;;;;;23.17;16.87;;;;;;;;;;2058927;28;20841;-55
2022/02/28 02:23:56;;;;;;;24.57;16.63;;;;;;;;;;2064734;28;20170;-56
2022/02/28 02:24:57;;;;;;;24.67;17.43;;;;;;;;;;2064608;28;20419;-55
2022/02/28 02:25:58;;;;;;;23.47;17.57;;;;;;;;;;2056580;28;20171;-56
2022/02/28 02:27:00;;;;;;;25.00;16.57;;;;;;;;;;2050615;29;20175;-56
2022/02/28 02:28:02;;;;;;;23.50;17.73;;;;;;;;;;2039730;29;20517;-53
2022/02/28 02:29:02;;;;;;;25.40;18.13;;;;;;;;;;2037748;29;20227;-53
2022/02/28 02:30:03;;;;;;;26.63;17.30;;;;;;;;;;2040785;29;20508;-54
2022/02/28 02:31:06;;;;;;;19.77;16.40;;;;;;;;;;2047598;28;20655;-56
2022/02/28 02:32:10;;;;;;;24.37;17.67;;;;;;;;;;2045361;29;20440;-55
2022/02/28 02:33:10;;;;;;;25.00;17.47;;;;;;;;;;2049257;28;20436;-51
2022/02/28 02:34:11;;;;;;;24.47;17.70;;;;;;;;;;2048795;28;20432;-54
2022/02/28 02:35:11;;;;;;;22.30;16.97;;;;;;;;;;2046475;28;20195;-54
2022/02/28 02:36:12;;;;;;;26.13;17.97;;;;;;;;;;2049283;28;20179;-54
2022/02/28 02:37:13;;;;;;;23.57;17.27;;;;;;;;;;2041515;29;20271;-52
2022/02/28 02:38:13;;;;;;;25.83;18.57;;;;;;;;;;2046277;28;20424;-55
2022/02/28 02:39:13;;;;;;;21.27;16.83;;;;;;;;;;2040925;29;20195;-55
2022/02/28 02:40:14;;;;;;;25.53;16.50;;;;;;;;;;2028517;29;20189;-55
2022/02/28 02:41:14;;;;;;;20.93;16.30;;;;;;;;;;2038032;29;20266;-51
2022/02/28 02:42:15;;;;;;;21.27;15.83;;;;;;;;;;2035265;29;20247;-53
2022/02/28 02:43:15;;;;;;;20.50;16.57;;;;;;;;;;2043816;29;20182;-52
2022/02/28 02:44:15;;;;;;;24.20;16.53;;;;;;;;;;2048854;28;20234;-53
2022/02/28 02:45:16;;;;;;;24.53;17.53;;;;;;;;;;2048771;29;20190;-52
2022/02/28 02:46:17;;;;;;;25.03;17.47;;;;;;;;;;2040395;29;20234;-52
2022/02/28 02:47:19;;;;;;;24.33;16.23;;;;;;;;;;2047755;28;20217;-51
2022/02/28 02:48:42;;;;;;;21.37;16.00;;;;;;;;;;2049180;28;20408;-51
2022/02/28 02:49:47;;;;;;;21.63;16.13;;;;;;;;;;2050931;28;20868;-53
2022/02/28 02:50:49;;;;;;;22.50;16.60;;;;;;;;;;2048706;29;20435;-53
2022/02/28 02:51:50;;;;;;;24.23;17.23;;;;;;;;;;2049824;29;20419;-56
2022/02/28 02:52:53;;;;;;;23.30;17.23;;;;;;;;;;2033963;29;20526;-56
2022/02/28 02:53:54;;;;;;;23.80;18.60;;;;;;;;;;2041649;29;20468;-54
2022/02/28 02:54:55;;;;;;;22.80;17.10;;;;;;;;;;2044861;29;20413;-56
2022/02/28 02:55:59;;;;;;;26.90;17.93;;;;;;;;;;2049721;28;20194;-55
2022/02/28 02:56:59;;;;;;;20.53;17.23;;;;;;;;;;2030753;29;20499;-55
2022/02/28 02:58:00;;;;;;;22.97;17.43;;;;;;;;;;2029375;29;20183;-53
2022/02/28 02:59:01;;;;;;;22.67;17.23;;;;;;;;;;2042141;29;20295;-53
2022/02/28 03:00:06;;;;;;;22.50;17.07;;;;;;;;;;2045925;28;20430;-52
2022/02/28 03:01:12;;;;;;;21.50;16.70;;;;;;;;;;2049669;29;20171;-53
2022/02/28 03:02:13;;;;;;;22.10;16.90;;;;;;;;;;2049113;28;20948;-53
2022/02/28 03:03:15;;;;;;;24.67;17.63;;;;;;;;;;2049497;29;20303;-54
2022/02/28 03:04:15;;;;;;;20.43;17.10;;;;;;;;;;2048884;28;20170;-52
2022/02/28 03:05:16;;;;;;;27.17;17.97;;;;;;;;;;2049479;29;20520;-50
2022/02/28 03:06:16;;;;;;;23.50;17.40;;;;;;;;;;2041740;29;20187;-53
2022/02/28 03:07:18;;;;;;;25.40;17.80;;;;;;;;;;2036259;29;20220;-51
2022/02/28 03:08:18;;;;;;;24.00;17.80;;;;;;;;;;2049710;29;20181;-56
2022/02/28 03:09:20;;;;;;;22.07;17.47;;;;;;;;;;2041584;29;20824;-54
2022/02/28 03:10:21;;;;;;;24.13;18.10;;;;;;;;;;2039659;29;20481;-52
2022/02/28 03:11:21;;;;;;;25.77;17.77;;;;;;;;;;2046243;28;20181;-54
2022/02/28 03:12:22;;;;;;;24.93;17.70;;;;;;;;;;2039471;29;20207;-57
2022/02/28 03:13:25;;;;;;;25.97;18.03;;;;;;;;;;2038972;29;20255;-55
2022/02/28 03:14:27;;;;;;;26.57;18.67;;;;;;;;;;2048511;28;20783;-52
2022/02/28 03:15:28;;;;;;;22.47;16.93;;;;;;;;;;2055221;28;20413;-54
2022/02/28 03:16:30;;;;;;;25.17;17.60;;;;;;;;;;2057324;28;20174;-54
2022/02/28 03:17:30;;;;;;;21.97;17.17;;;;;;;;;;2054032;28;20455;-55
2022/02/28 03:18:31;;;;;;;25.43;18.33;;;;;;;;;;2057908;28;20218;-53
2022/02/28 03:19:31;;;;;;;25.37;17.97;;;;;;;;;;2046818;28;20214;-57
2022/02/28 03:20:31;;;;;;;27.03;17.77;;;;;;;;;;2041570;29;20182;-55
2022/02/28 03:21:32;;;;;;;24.43;17.17;;;;;;;;;;2046214;28;20170;-52
2022/02/28 03:22:33;;;;;;;24.33;17.27;;;;;;;;;;2058129;28;20194;-55
2022/02/28 03:23:34;;;;;;;24.30;17.43;;;;;;;;;;2049468;28;20174;-56
2022/02/28 03:24:40;;;;;;;25.60;16.80;;;;;;;;;;2048906;29;20448;-50
2022/02/28 03:25:40;;;;;;;21.03;16.03;;;;;;;;;;2048105;28;21092;-54
2022/02/28 03:26:42;;;;;;;22.70;17.43;;;;;;;;;;2050641;28;20664;-52
2022/02/28 03:27:43;;;;;;;24.70;18.70;;;;;;;;;;2042544;28;20426;-56
2022/02/28 03:28:44;;;;;;;29.03;18.30;;;;;;;;;;2040831;29;20430;-55
2022/02/28 03:29:44;;;;;;;21.30;16.87;;;;;;;;;;2035172;29;20196;-54
2022/02/28 03:30:45;;;;;;;22.93;17.40;;;;;;;;;;2038849;29;20909;-52
2022/02/28 03:31:47;;;;;;;25.20;18.57;;;;;;;;;;2027316;29;20236;-57
2022/02/28 03:32:49;;;;;;;24.03;17.63;;;;;;;;;;2040621;28;20813;-52
2022/02/28 03:33:49;;;;;;;21.73;17.67;;;;;;;;;;2048845;29;20488;-54
2022/02/28 03:34:50;;;;;;;24.47;18.03;;;;;;;;;;2040206;29;20255;-55
2022/02/28 03:35:50;;;;;;;23.83;18.27;;;;;;;;;;2049286;29;20179;-54
2022/02/28 03:36:51;;;;;;;23.30;18.00;;;;;;;;;;2048850;28;20174;-55
2022/02/28 03:37:51;;;;;;;23.97;17.67;;;;;;;;;;2040603;29;20203;-56
2022/02/28 03:38:53;;;;;;;24.17;17.73;;;;;;;;;;2039658;29;20196;-55
2022/02/28 03:39:55;;;;;;;26.50;18.43;;;;;;;;;;2041674;29;20172;-55
2022/02/28 03:40:55;;;;;;;24.90;17.77;;;;;;;;;;2040677;29;20488;-52
2022/02/28 03:41:56;;;;;;;25.00;18.13;;;;;;;;;;2043928;29;20413;-54
2022/02/28 03:42:59;;;;;;;26.53;18.40;;;;;;;;;;2045784;28;20222;-53
2022/02/28 03:44:05;;;;;;;23.97;17.83;;;;;;;;;;2046158;28;20417;-52
2022/02/28 03:45:10;;;;;;;26.70;18.13;;;;;;;;;;2048692;28;20423;-55
2022/02/28 03:46:11;;;;;;;29.23;19.17;;;;;;;;;;2040896;29;20404;-54
2022/02/28 03:47:30;;;;;;;25.67;18.33;;;;;;;;;;2051012;28;20182;-52
2022/02/28 03:48:49;;;;;;;24.17;17.77;;;;;;;;;;2051272;28;20417;-54
2022/02/28 03:49:57;;;;;;;26.23;18.03;;;;;;;;;;2057132;28;20511;-55
2022/02/28 03:51:07;;;;;;;24.43;17.63;;;;;;;;;;2045254;29;20456;-52
2022/02/28 03:52:07;;;;;;;25.67;19.40;;;;;;;;;;2045977;28;21059;-54
2022/02/28 03:53:26;;;;;;;24.17;17.90;;;;;;;;;;2051216;28;20675;-56
2022/02/28 03:54:27;;;;;;;23.67;18.27;;;;;;;;;;2056518;28;20444;-58
2022/02/28 03:55:27;;;;;;;24.40;18.17;;;;;;;;;;2049340;28;20171;-58
2022/02/28 03:56:29;;;;;;;26.97;19.60;;;;;;;;;;2042814;29;20671;-56
2022/02/28 03:57:30;;;;;;;27.87;19.33;;;;;;;;;;2043892;29;20542;-59
2022/02/28 03:58:35;;;;;;;27.17;19.07;;;;;;;;;;2050759;29;20174;-56
2022/02/28 03:59:35;;;;;;;26.90;17.77;;;;;;;;;;2049329;28;20219;-54
2022/02/28 04:00:35;;;;;;;24.70;17.73;;;;;;;;;;2041808;29;20421;-56
2022/02/28 04:01:36;;;;;;;27.40;19.47;;;;;;;;;;2049944;29;20179;-59
2022/02/28 04:02:40;;;;;;;27.63;19.37;;;;;;;;;;2049757;28;20190;-55
2022/02/28 04:03:41;;;;;;;29.73;19.23;;;;;;;;;;2037829;29;20981;-52
2022/02/28 04:04:41;;;;;;;28.10;20.47;;;;;;;;;;2026602;29;20628;-57
2022/02/28 04:05:42;;;;;;;30.10;19.83;;;;;;;;;;2034373;29;20176;-57
2022/02/28 04:06:46;;;;;;;30.93;20.27;;;;;;;;;;2048526;29;20230;-55
2022/02/28 04:07:47;;;;;;;27.10;19.83;;;;;;;;;;2036450;29;20450;-54
2022/02/28 04:08:48;;;;;;;29.30;19.60;;;;;;;;;;2048628;28;20400;-55
2022/02/28 04:09:48;;;;;;;27.70;20.00;;;;;;;;;;2056922;28;20760;-56
2022/02/28 04:10:48;;;;;;;33.50;19.73;;;;;;;;;;2048784;28;20183;-56
2022/02/28 04:11:48;;;;;;;27.40;20.47;;;;;;;;;;2032382;29;20165;-55
2022/02/28 04:12:49;;;;;;;32.03;21.13;;;;;;;;;;2040951;29;20796;-54
2022/02/28 04:13:50;;;;;;;25.57;19.57;;;;;;;;;;2048043;29;20186;-56
2022/02/28 04:14:51;;;;;;;30.50;20.17;;;;;;;;;;2047881;29;20409;-53
2022/02/28 04:15:51;;;;;;;26.60;20.23;;;;;;;;;;2048023;29;20873;-54
2022/02/28 04:16:51;;;;;;;27.57;20.10;;;;;;;;;;2040533;29;20176;-54
2022/02/28 04:18:15;;;;;;;27.13;19.77;;;;;;;;;;2027874;29;20197;-55
2022/02/28 04:19:32;;;;;;;31.70;19.83;;;;;;;;;;2044690;29;20428;-57
2022/02/28 04:20:32;;;;;;;28.30;20.07;;;;;;;;;;2040425;29;20465;-53
2022/02/28 04:21:32;;;;;;;26.57;18.83;;;;;;;;;;2048066;28;20190;-55
2022/02/28 04:22:33;;;;;;;26.63;20.47;;;;;;;;;;2048110;28;20226;-55
2022/02/28 04:23:36;;;;;;;26.80;19.67;;;;;;;;;;2048481;29;20185;-57
2022/02/28 04:24:36;;;;;;;29.17;20.00;;;;;;;;;;2047025;28;20167;-56
2022/02/28 04:25:36;;;;;;;28.33;20.20;;;;;;;;;;2047641;29;20425;-57
2022/02/28 04:26:37;;;;;;;25.17;19.30;;;;;;;;;;2047619;28;20222;-55
2022/02/28 04:27:38;;;;;;;27.50;20.07;;;;;;;;;;2056158;28;20178;-53
2022/02/28 04:28:40;;;;;;;27.47;18.83;;;;;;;;;;2048228;29;20209;-55
2022/02/28 04:29:40;;;;;;;25.10;19.57;;;;;;;;;;2039563;29;20449;-57
2022/02/28 04:30:47;;;;;;;27.27;19.07;;;;;;;;;;2040812;29;20246;-57
2022/02/28 04:31:47;;;;;;;26.33;19.10;;;;;;;;;;2034220;29;20995;-56
2022/02/28 04:32:48;;;;;;;24.30;18.17;;;;;;;;;;2048194;28;20198;-56
2022/02/28 04:33:50;;;;;;;23.50;18.77;;;;;;;;;;2048868;29;20179;-56
2022/02/28 04:34:51;;;;;;;27.80;18.87;;;;;;;;;;2047186;29;20408;-54
2022/02/28 04:35:52;;;;;;;24.77;18.27;;;;;;;;;;2049231;28;20302;-50
2022/02/28 04:36:52;;;;;;;29.00;19.13;;;;;;;;;;2040448;29;20441;-55
2022/02/28 04:37:53;;;;;;;27.73;18.50;;;;;;;;;;2041297;29;20172;-57
2022/02/28 04:38:53;;;;;;;24.83;18.97;;;;;;;;;;2049252;29;20753;-58
2022/02/28 04:39:53;;;;;;;28.70;19.37;;;;;;;;;;2049781;29;20313;-56
2022/02/28 04:40:54;;;;;;;26.30;19.57;;;;;;;;;;2038385;29;20184;-55
2022/02/28 04:41:54;;;;;;;28.10;19.90;;;;;;;;;;2036779;29;20175;-57
2022/02/28 04:42:55;;;;;;;28.57;20.10;;;;;;;;;;2050025;29;20205;-58
2022/02/28 04:43:56;;;;;;;27.40;19.83;;;;;;;;;;2049875;29;20175;-57
2022/02/28 04:44:59;;;;;;;24.93;19.03;;;;;;;;;;2049092;28;20174;-57
2022/02/28 04:45:59;;;;;;;27.23;20.23;;;;;;;;;;2054345;28;20408;-59
2022/02/28 04:47:01;;;;;;;26.03;19.93;;;;;;;;;;2048687;28;20206;-56
2022/02/28 04:48:21;;;;;;;25.93;18.67;;;;;;;;;;2051495;28;20170;-55
2022/02/28 04:49:41;;;;;;;28.13;18.83;;;;;;;;;;2049145;28;20404;-53
2022/02/28 04:50:42;;;;;;;26.90;20.73;;;;;;;;;;2049251;28;20460;-55
2022/02/28 04:51:42;;;;;;;27.57;20.73;;;;;;;;;;2042324;29;20587;-55
2022/02/28 04:52:46;;;;;;;27.20;20.00;;;;;;;;;;2049120;28;20219;-54
2022/02/28 04:53:48;;;;;;;30.57;21.67;;;;;;;;;;2042196;29;20406;-55
2022/02/28 04:54:49;;;;;;;27.87;19.77;;;;;;;;;;2049628;29;20408;-53
2022/02/28 04:55:51;;;;;;;26.23;19.00;;;;;;;;;;2049829;29;20183;-58
2022/02/28 04:56:51;;;;;;;31.00;19.60;;;;;;;;;;2041836;29;20492;-53
2022/02/28 04:57:52;;;;;;;26.43;18.63;;;;;;;;;;2049419;29;20889;-54
2022/02/28 04:59:16;;;;;;;30.33;19.43;;;;;;;;;;2039905;29;20191;-57
2022/02/28 05:00:23;;;;;;;25.33;18.93;;;;;;;;;;2056312;28;20499;-53
2022/02/28 05:01:27;;;;;;;24.67;19.73;;;;;;;;;;2043383;28;20441;-55
2022/02/28 05:02:28;;;;;;;30.63;20.27;;;;;;;;;;2040814;29;20398;-54
2022/02/28 05:03:36;;;;;;;27.57;20.07;;;;;;;;;;2042694;29;20461;-56
2022/02/28 05:04:37;;;;;;;30.17;22.23;;;;;;;;;;2049178;28;20465;-59
2022/02/28 05:05:39;;;;;;;36.77;24.57;;;;;;;;;;2050191;29;20671;-54
2022/02/28 05:06:39;;;;;;;28.10;21.47;;;;;;;;;;2050180;28;20401;-57
2022/02/28 05:07:40;;;;;;;32.70;20.97;;;;;;;;;;2051690;28;20194;-55
2022/02/28 05:08:41;;;;;;;30.17;20.57;;;;;;;;;;2050835;29;20206;-57
2022/02/28 05:09:41;;;;;;;29.07;19.63;;;;;;;;;;2050152;29;20699;-55
2022/02/28 05:10:43;;;;;;;32.87;21.50;;;;;;;;;;2050770;28;20175;-53
2022/02/28 05:11:48;;;;;;;27.17;21.73;;;;;;;;;;2050231;29;20786;-53
2022/02/28 05:12:49;;;;;;;31.53;20.83;;;;;;;;;;2046108;28;20463;-53
2022/02/28 05:13:49;;;;;;;30.17;19.57;;;;;;;;;;2046530;29;20254;-55
2022/02/28 05:14:49;;;;;;;31.17;20.77;;;;;;;;;;2048719;28;20205;-55
2022/02/28 05:15:51;;;;;;;27.80;21.30;;;;;;;;;;2041088;29;20790;-55
2022/02/28 05:16:53;;;;;;;27.77;20.70;;;;;;;;;;2040605;29;20508;-54
2022/02/28 05:17:53;;;;;;;30.07;20.67;;;;;;;;;;2051435;28;20421;-56
2022/02/28 05:18:54;;;;;;;26.70;20.47;;;;;;;;;;2051316;28;20441;-58
2022/02/28 05:19:54;;;;;;;26.33;19.93;;;;;;;;;;2050696;29;20942;-55
2022/02/28 05:20:55;;;;;;;28.47;20.57;;;;;;;;;;2037550;29;20711;-59
2022/02/28 05:21:56;;;;;;;29.67;19.87;;;;;;;;;;2035324;29;20176;-58
2022/02/28 05:22:57;;;;;;;25.03;19.80;;;;;;;;;;2038829;29;20272;-56
2022/02/28 05:23:57;;;;;;;27.30;21.00;;;;;;;;;;2051196;29;20405;-58
2022/02/28 05:24:58;;;;;;;30.03;21.33;;;;;;;;;;2052644;28;20179;-56
2022/02/28 05:25:58;;;;;;;29.00;20.00;;;;;;;;;;2047730;29;20254;-56
2022/02/28 05:26:59;;;;;;;32.17;21.67;;;;;;;;;;2047846;28;20684;-58
2022/02/28 05:27:59;;;;;;;32.10;21.13;;;;;;;;;;2052578;28;20179;-62
2022/02/28 05:29:00;;;;;;;30.13;22.20;;;;;;;;;;2053482;29;20655;-59
2022/02/28 05:30:00;;;;;;;28.77;21.17;;;;;;;;;;2049718;29;20207;-57
2022/02/28 05:31:01;;;;;;;33.00;22.37;;;;;;;;;;2053127;29;20210;-57
2022/02/28 05:32:01;;;;;;;30.63;21.43;;;;;;;;;;2045190;29;20184;-56
2022/02/28 05:33:25;;;;;;;34.13;22.50;;;;;;;;;;2048593;28;20198;-57
2022/02/28 05:34:27;;;;;;;31.30;21.27;;;;;;;;;;2052115;28;20424;-59
2022/02/28 05:35:28;;;;;;;30.83;21.77;;;;;;;;;;2052405;29;20425;-57
2022/02/28 05:36:39;;;;;;;29.57;21.20;;;;;;;;;;2051252;28;21153;-58
2022/02/28 05:37:57;;;;;;;29.70;21.27;;;;;;;;;;2052647;29;20420;-57
2022/02/28 05:38:57;;;;;;;32.13;21.80;;;;;;;;;;2045020;29;20416;-57
2022/02/28 05:39:58;;;;;;;32.17;22.07;;;;;;;;;;2044695;29;20548;-58
2022/02/28 05:41:04;;;;;;;32.13;22.23;;;;;;;;;;2045852;29;20180;-57
2022/02/28 05:42:09;;;;;;;30.80;21.33;;;;;;;;;;2056612;28;20463;-57
2022/02/28 05:43:10;;;;;;;29.13;20.97;;;;;;;;;;2054915;28;20461;-58
2022/02/28 05:44:12;;;;;;;32.10;21.60;;;;;;;;;;2052414;28;20198;-58
2022/02/28 05:45:12;;;;;;;27.47;19.90;;;;;;;;;;2041650;29;20425;-56
2022/02/28 05:46:22;;;;;;;30.03;22.23;;;;;;;;;;2045318;29;20259;-54
2022/02/28 05:47:28;;;;;;;29.50;20.23;;;;;;;;;;2052666;28;20563;-57
2022/02/28 05:48:29;;;;;;;29.13;20.30;;;;;;;;;;2056279;28;20417;-56
2022/02/28 05:49:29;;;;;;;27.37;20.77;;;;;;;;;;2051699;28;20183;-58
2022/02/28 05:50:30;;;;;;;33.37;22.10;;;;;;;;;;2051477;28;20361;-58
2022/02/28 05:51:31;;;;;;;33.00;21.77;;;;;;;;;;2058921;28;20194;-58
2022/02/28 05:52:32;;;;;;;31.50;21.30;;;;;;;;;;2055253;28;20253;-61
2022/02/28 05:53:32;;;;;;;27.53;19.93;;;;;;;;;;2057228;28;20455;-53
2022/02/28 05:54:32;;;;;;;32.17;21.40;;;;;;;;;;2058137;28;20182;-54
2022/02/28 05:55:34;;;;;;;30.47;21.23;;;;;;;;;;2056242;28;20614;-54
2022/02/28 05:56:34;;;;;;;30.37;21.10;;;;;;;;;;2057809;28;20182;-52
2022/02/28 05:57:38;;;;;;;27.47;20.03;;;;;;;;;;2057114;28;20427;-53
2022/02/28 05:58:39;;;;;;;33.27;20.83;;;;;;;;;;2058075;28;20177;-52